createdAt,value
2019-03-29T00:01:41.465Z,99.90
2019-03-29T00:04:12.885Z,99.90
2019-03-29T00:06:46.900Z,99.90
2019-03-29T00:09:18.303Z,99.90
2019-03-29T00:11:46.718Z,99.90
2019-03-29T00:14:23.365Z,99.90
2019-03-29T00:16:56.336Z,99.90
2019-03-29T00:19:26.410Z,99.90
2019-03-29T00:21:57.341Z,99.90
2019-03-29T00:24:28.457Z,99.90
2019-03-29T00:27:02.678Z,99.90
2019-03-29T00:29:37.279Z,99.90
2019-03-29T00:32:10.345Z,99.90
2019-03-29T00:34:50.647Z,99.90
2019-03-29T00:37:22.203Z,99.90
2019-03-29T00:39:51.049Z,99.90
2019-03-29T00:42:25.566Z,99.90
2019-03-29T00:44:56.966Z,99.90
2019-03-29T00:47:34.014Z,99.90
2019-03-29T00:50:07.067Z,99.90
2019-03-29T00:52:38.847Z,99.90
2019-03-29T00:55:10.049Z,99.90
2019-03-29T00:57:38.459Z,99.90
2019-03-29T01:00:13.422Z,99.90
2019-03-29T01:02:41.835Z,99.90
2019-03-29T01:05:11.485Z,99.90
2019-03-29T01:07:42.886Z,99.90
2019-03-29T01:10:17.101Z,99.90
2019-03-29T01:12:45.835Z,99.90
2019-03-29T01:15:17.111Z,99.90
2019-03-29T01:17:54.146Z,99.90
2019-03-29T01:20:24.209Z,99.90
2019-03-29T01:22:54.269Z,99.90
2019-03-29T01:25:23.034Z,99.90
2019-03-29T01:27:53.153Z,99.90
2019-03-29T01:30:23.039Z,99.90
2019-03-29T01:32:59.702Z,99.90
2019-03-29T01:35:34.005Z,99.90
2019-03-29T01:38:21.079Z,99.90
2019-03-29T01:40:49.598Z,99.90
2019-03-29T01:43:23.906Z,99.90
2019-03-29T01:45:53.972Z,99.90
2019-03-29T01:48:28.991Z,99.90
2019-03-29T01:50:57.417Z,99.90
2019-03-29T01:53:27.473Z,99.90
2019-03-29T01:56:04.707Z,99.90
2019-03-29T01:58:37.810Z,99.90
2019-03-29T02:01:09.370Z,99.90
2019-03-29T02:03:42.097Z,99.90
2019-03-29T02:06:10.529Z,99.90
2019-03-29T02:08:38.947Z,99.90
2019-03-29T02:11:10.373Z,99.90
2019-03-29T02:13:44.979Z,99.90
2019-03-29T02:16:13.665Z,99.90
2019-03-29T02:18:44.972Z,99.90
2019-03-29T02:21:13.570Z,99.90
2019-03-29T02:23:41.984Z,99.90
2019-03-29T02:26:15.211Z,99.90
2019-03-29T02:28:48.209Z,99.90
2019-03-29T02:31:16.971Z,99.90
2019-03-29T02:33:45.383Z,99.90
2019-03-29T02:36:13.812Z,99.90
2019-03-29T02:38:54.907Z,99.90
2019-03-29T02:41:15.406Z,99.90
2019-03-29T02:43:52.485Z,99.90
2019-03-29T02:46:20.981Z,99.90
2019-03-29T02:48:49.397Z,99.90
2019-03-29T02:51:19.465Z,99.90
2019-03-29T02:53:50.898Z,99.90
2019-03-29T02:56:19.427Z,99.90
2019-03-29T02:58:47.997Z,99.90
2019-03-29T03:01:20.488Z,99.90
2019-03-29T03:03:53.204Z,99.90
2019-03-29T03:06:26.002Z,99.90
2019-03-29T03:09:12.126Z,99.90
2019-03-29T03:11:26.199Z,99.90
2019-03-29T03:13:54.615Z,99.90
2019-03-29T03:16:23.050Z,99.90
2019-03-29T03:18:57.870Z,99.90
2019-03-29T03:21:33.521Z,99.90
2019-03-29T03:24:01.001Z,99.90
2019-03-29T03:26:34.023Z,99.90
2019-03-29T03:29:08.581Z,99.90
2019-03-29T03:31:37.006Z,99.90
2019-03-29T03:34:05.427Z,99.90
2019-03-29T03:36:35.496Z,99.90
2019-03-29T03:39:06.728Z,99.90
2019-03-29T03:41:35.946Z,99.90
2019-03-29T03:44:04.678Z,99.90
2019-03-29T03:46:38.745Z,99.90
2019-03-29T03:49:10.329Z,99.90
2019-03-29T03:51:38.930Z,99.90
2019-03-29T03:54:09.993Z,99.90
2019-03-29T03:56:41.378Z,99.90
2019-03-29T03:59:14.609Z,99.90
2019-03-29T04:01:46.558Z,99.90
2019-03-29T04:04:19.537Z,99.90
2019-03-29T04:06:50.665Z,99.90
2019-03-29T04:09:20.712Z,99.90
2019-03-29T04:11:50.797Z,99.90
2019-03-29T04:14:21.934Z,99.90
2019-03-29T04:16:52.001Z,99.90
2019-03-29T04:19:20.415Z,99.90
2019-03-29T04:21:48.858Z,99.90
2019-03-29T04:24:18.538Z,99.90
2019-03-29T04:26:51.415Z,99.90
2019-03-29T04:29:24.172Z,99.90
2019-03-29T04:32:01.394Z,99.90
2019-03-29T04:34:34.133Z,99.90
2019-03-29T04:37:02.844Z,99.90
2019-03-29T04:39:31.347Z,99.90
2019-03-29T04:42:05.132Z,99.90
2019-03-29T04:44:39.254Z,99.90
2019-03-29T04:47:10.646Z,99.90
2019-03-29T04:49:48.941Z,99.90
2019-03-29T04:52:23.217Z,99.90
2019-03-29T04:54:51.645Z,99.90
2019-03-29T04:57:22.769Z,99.90
2019-03-29T04:59:55.486Z,99.90
2019-03-29T05:02:25.566Z,99.90
2019-03-29T05:05:04.070Z,99.90
2019-03-29T05:07:37.002Z,99.90
2019-03-29T05:10:20.223Z,99.90
2019-03-29T05:12:37.732Z,99.90
2019-03-29T05:15:09.496Z,99.90
2019-03-29T05:17:38.732Z,99.90
2019-03-29T05:20:10.720Z,99.90
2019-03-29T05:22:43.500Z,99.90
2019-03-29T05:25:11.924Z,99.90
2019-03-29T05:27:46.314Z,99.90
2019-03-29T05:30:18.109Z,99.90
2019-03-29T05:32:46.546Z,99.90
2019-03-29T05:35:17.541Z,99.90
2019-03-29T05:37:45.961Z,99.90
2019-03-29T05:40:14.393Z,99.90
2019-03-29T05:42:47.426Z,99.90
2019-03-29T05:45:21.573Z,99.90
2019-03-29T05:47:51.597Z,99.90
2019-03-29T05:50:28.470Z,99.90
2019-03-29T05:52:56.885Z,99.90
2019-03-29T05:55:32.799Z,99.90
2019-03-29T05:57:58.408Z,99.90
2019-03-29T06:00:32.693Z,99.90
2019-03-29T06:03:01.117Z,99.90
2019-03-29T06:05:35.588Z,99.90
2019-03-29T06:08:09.631Z,99.90
2019-03-29T06:10:48.217Z,99.90
2019-03-29T06:13:09.049Z,99.90
2019-03-29T06:15:44.629Z,99.90
2019-03-29T06:18:14.681Z,99.90
2019-03-29T06:20:51.677Z,99.90
2019-03-29T06:23:25.545Z,99.90
2019-03-29T06:25:53.944Z,99.90
2019-03-29T06:28:25.539Z,99.90
2019-03-29T06:30:55.581Z,99.90
2019-03-29T06:33:27.962Z,99.90
2019-03-29T06:36:06.588Z,99.90
2019-03-29T06:38:44.528Z,99.90
2019-03-29T06:41:18.568Z,98.70
2019-03-29T06:43:51.312Z,96.50
2019-03-29T06:46:28.403Z,94.70
2019-03-29T06:48:56.841Z,92.10
2019-03-29T06:51:31.200Z,90.40
2019-03-29T06:54:02.589Z,86.30
2019-03-29T06:56:39.664Z,79.00
2019-03-29T06:59:09.745Z,69.50
2019-03-29T07:01:46.704Z,57.40
2019-03-29T07:04:20.928Z,53.70
2019-03-29T07:06:50.995Z,51.20
2019-03-29T07:09:24.812Z,48.20
2019-03-29T07:12:02.026Z,45.30
2019-03-29T07:14:33.393Z,45.40
2019-03-29T07:17:04.471Z,51.80
2019-03-29T07:19:32.904Z,56.90
2019-03-29T07:22:04.657Z,65.00
2019-03-29T07:24:38.029Z,74.00
2019-03-29T07:27:06.442Z,77.80
2019-03-29T07:29:40.656Z,82.60
2019-03-29T07:32:18.333Z,83.10
2019-03-29T07:34:54.613Z,85.90
2019-03-29T07:37:23.028Z,87.70
2019-03-29T07:39:53.946Z,85.80
2019-03-29T07:42:31.980Z,85.80
2019-03-29T07:45:00.856Z,79.50
2019-03-29T07:47:38.268Z,81.00
2019-03-29T07:50:19.317Z,71.70
2019-03-29T07:52:47.862Z,68.70
2019-03-29T07:55:21.015Z,67.60
2019-03-29T07:57:51.804Z,68.40
2019-03-29T08:00:24.783Z,62.80
2019-03-29T08:02:56.125Z,56.80
2019-03-29T08:05:24.551Z,50.80
2019-03-29T08:07:53.261Z,46.70
2019-03-29T08:10:31.951Z,47.40
2019-03-29T08:13:03.333Z,44.40
2019-03-29T08:15:34.713Z,42.90
2019-03-29T08:18:06.165Z,39.20
2019-03-29T08:20:43.522Z,37.70
2019-03-29T08:23:09.157Z,35.70
2019-03-29T08:25:41.097Z,36.40
2019-03-29T08:28:09.507Z,36.00
2019-03-29T08:30:38.968Z,36.70
2019-03-29T08:33:22.943Z,33.70
2019-03-29T08:35:54.281Z,32.40
2019-03-29T08:38:31.429Z,30.80
2019-03-29T08:41:07.536Z,30.50
2019-03-29T08:43:35.949Z,32.90
2019-03-29T08:46:08.612Z,34.10
2019-03-29T08:48:38.673Z,35.20
2019-03-29T08:51:13.098Z,33.70
2019-03-29T08:53:44.067Z,33.20
2019-03-29T08:56:12.501Z,33.20
2019-03-29T08:58:46.760Z,31.80
2019-03-29T09:01:15.346Z,31.10
2019-03-29T09:04:02.768Z,30.90
2019-03-29T09:06:22.928Z,29.80
2019-03-29T09:08:52.215Z,29.20
2019-03-29T09:11:20.639Z,29.80
2019-03-29T09:13:52.762Z,28.60
2019-03-29T09:16:21.141Z,26.80
2019-03-29T09:18:49.568Z,25.80
2019-03-29T09:21:17.994Z,24.20
2019-03-29T09:23:52.843Z,24.40
2019-03-29T09:26:22.918Z,24.40
2019-03-29T09:28:51.326Z,26.30
2019-03-29T09:31:19.750Z,26.90
2019-03-29T09:33:54.217Z,27.20
2019-03-29T09:36:26.056Z,27.30
2019-03-29T09:39:00.242Z,28.20
2019-03-29T09:41:28.736Z,28.60
2019-03-29T09:43:57.430Z,29.00
2019-03-29T09:46:26.034Z,28.80
2019-03-29T09:49:08.249Z,29.00
2019-03-29T09:51:37.937Z,28.80
2019-03-29T09:54:10.396Z,28.30
2019-03-29T09:56:40.457Z,28.50
2019-03-29T09:59:23.229Z,28.70
2019-03-29T10:01:57.858Z,29.20
2019-03-29T10:04:35.105Z,30.90
2019-03-29T10:07:04.536Z,29.70
2019-03-29T10:09:36.293Z,28.60
2019-03-29T10:12:06.426Z,28.70
2019-03-29T10:14:36.392Z,28.70
2019-03-29T10:17:07.822Z,29.10
2019-03-29T10:19:36.236Z,29.20
2019-03-29T10:22:07.429Z,30.00
2019-03-29T10:24:41.668Z,31.40
2019-03-29T10:27:11.755Z,32.20
2019-03-29T10:29:45.209Z,31.00
2019-03-29T10:32:25.661Z,30.90
2019-03-29T10:34:58.369Z,31.00
2019-03-29T10:37:30.194Z,30.80
2019-03-29T10:39:58.590Z,30.40
2019-03-29T10:42:27.013Z,29.90
2019-03-29T10:44:57.079Z,30.30
2019-03-29T10:47:43.093Z,32.10
2019-03-29T10:50:00.370Z,32.50
2019-03-29T10:52:30.529Z,32.70
2019-03-29T10:55:02.106Z,32.70
2019-03-29T10:57:37.782Z,33.10
2019-03-29T11:00:10.148Z,33.20
2019-03-29T11:02:44.200Z,33.10
2019-03-29T11:05:12.857Z,34.10
2019-03-29T11:07:42.205Z,33.90
2019-03-29T11:10:13.694Z,34.30
2019-03-29T11:12:45.204Z,33.60
2019-03-29T11:15:13.865Z,33.70
2019-03-29T11:17:43.923Z,33.70
2019-03-29T11:20:18.729Z,33.20
2019-03-29T11:22:49.246Z,33.70
2019-03-29T11:25:20.346Z,34.10
2019-03-29T11:27:48.841Z,34.10
2019-03-29T11:30:18.793Z,34.10
2019-03-29T11:32:48.853Z,33.70
2019-03-29T11:35:18.551Z,33.50
2019-03-29T11:38:04.557Z,34.00
2019-03-29T11:40:32.977Z,33.90
2019-03-29T11:43:01.400Z,36.30
2019-03-29T11:45:34.361Z,36.30
2019-03-29T11:48:09.019Z,33.80
2019-03-29T11:50:39.431Z,35.40
2019-03-29T11:53:07.909Z,36.20
2019-03-29T11:55:42.097Z,36.30
2019-03-29T11:58:10.521Z,36.70
2019-03-29T12:00:40.844Z,37.50
2019-03-29T12:03:15.125Z,39.20
2019-03-29T12:05:49.004Z,37.90
2019-03-29T12:08:18.205Z,37.60
2019-03-29T12:10:50.073Z,38.50
2019-03-29T12:13:21.264Z,40.10
2019-03-29T12:15:57.047Z,40.00
2019-03-29T12:18:36.911Z,40.60
2019-03-29T12:21:05.325Z,40.80
2019-03-29T12:23:37.514Z,40.00
2019-03-29T12:26:08.782Z,40.70
2019-03-29T12:28:37.588Z,37.90
2019-03-29T12:31:15.454Z,38.80
2019-03-29T12:33:43.874Z,38.80
2019-03-29T12:36:15.094Z,39.40
2019-03-29T12:38:45.152Z,40.20
2019-03-29T12:41:13.874Z,40.00
2019-03-29T12:43:54.892Z,41.70
2019-03-29T12:46:16.917Z,42.00
2019-03-29T12:48:45.370Z,43.10
2019-03-29T12:51:13.784Z,44.00
2019-03-29T12:53:42.251Z,44.10
2019-03-29T12:56:16.516Z,42.90
2019-03-29T12:59:22.006Z,42.40
2019-03-29T13:01:39.333Z,43.30
2019-03-29T13:04:02.537Z,44.30
2019-03-29T13:06:35.428Z,46.40
2019-03-29T13:09:08.453Z,47.40
2019-03-29T13:11:44.471Z,47.60
2019-03-29T13:14:14.405Z,49.20
2019-03-29T13:16:42.818Z,49.60
2019-03-29T13:19:12.875Z,50.50
2019-03-29T13:21:43.201Z,49.70
2019-03-29T13:24:16.052Z,49.10
2019-03-29T13:26:44.449Z,53.40
2019-03-29T13:29:18.608Z,52.80
2019-03-29T13:31:47.024Z,52.90
2019-03-29T13:34:20.093Z,52.80
2019-03-29T13:36:48.522Z,54.00
2019-03-29T13:39:16.926Z,56.20
2019-03-29T13:41:49.718Z,57.30
2019-03-29T13:44:24.473Z,58.70
2019-03-29T13:46:52.900Z,57.90
2019-03-29T13:49:24.735Z,57.00
2019-03-29T13:51:57.297Z,56.50
2019-03-29T13:54:31.585Z,58.50
2019-03-29T13:57:00.117Z,60.60
2019-03-29T13:59:31.613Z,58.10
2019-03-29T14:01:58.683Z,59.50
2019-03-29T14:04:30.838Z,62.40
2019-03-29T14:07:10.969Z,62.10
2019-03-29T14:09:42.345Z,61.60
2019-03-29T14:12:15.224Z,61.70
2019-03-29T14:14:46.308Z,61.00
2019-03-29T14:17:16.370Z,62.70
2019-03-29T14:19:44.785Z,62.90
2019-03-29T14:22:13.196Z,62.00
2019-03-29T14:24:41.848Z,60.30
2019-03-29T14:27:13.669Z,65.10
2019-03-29T14:29:45.024Z,67.20
2019-03-29T14:32:25.309Z,66.80
2019-03-29T14:34:56.806Z,65.20
2019-03-29T14:37:28.093Z,65.10
2019-03-29T14:39:56.505Z,66.70
2019-03-29T14:42:24.931Z,63.20
2019-03-29T14:44:57.917Z,60.70
2019-03-29T14:47:41.346Z,60.00
2019-03-29T14:50:04.057Z,61.40
2019-03-29T14:52:32.483Z,59.20
2019-03-29T14:55:03.679Z,58.90
2019-03-29T14:57:35.057Z,63.20
2019-03-29T15:00:06.562Z,60.60
2019-03-29T15:02:40.778Z,59.80
2019-03-29T15:05:09.358Z,58.50
2019-03-29T15:07:39.857Z,59.60
2019-03-29T15:10:25.814Z,59.80
2019-03-29T15:12:55.573Z,60.20
2019-03-29T15:15:35.563Z,60.50
2019-03-29T15:18:03.997Z,59.80
2019-03-29T15:20:35.413Z,59.90
2019-03-29T15:23:05.545Z,57.70
2019-03-29T15:25:36.821Z,59.70
2019-03-29T15:28:09.822Z,62.30
2019-03-29T15:30:46.920Z,67.10
2019-03-29T15:33:16.993Z,61.40
2019-03-29T15:35:48.629Z,64.20
2019-03-29T15:38:21.071Z,65.10
2019-03-29T15:40:52.341Z,65.60
2019-03-29T15:43:23.769Z,66.00
2019-03-29T15:45:55.009Z,64.10
2019-03-29T15:48:27.901Z,63.60
2019-03-29T15:50:57.986Z,64.70
2019-03-29T15:53:31.958Z,64.60
2019-03-29T15:56:03.489Z,63.70
2019-03-29T15:58:34.872Z,64.20
2019-03-29T16:01:15.300Z,68.10
2019-03-29T16:03:43.725Z,65.30
2019-03-29T16:06:12.144Z,65.90
2019-03-29T16:08:40.568Z,67.40
2019-03-29T16:11:17.008Z,66.60
2019-03-29T16:13:43.908Z,66.30
2019-03-29T16:16:12.528Z,65.70
2019-03-29T16:18:46.721Z,65.10
2019-03-29T16:21:34.675Z,64.70
2019-03-29T16:24:01.863Z,67.00
2019-03-29T16:26:36.177Z,64.00
2019-03-29T16:29:08.918Z,62.80
2019-03-29T16:31:39.990Z,63.10
2019-03-29T16:34:08.997Z,63.30
2019-03-29T16:36:37.419Z,65.60
2019-03-29T16:39:09.238Z,67.20
2019-03-29T16:41:40.418Z,67.20
2019-03-29T16:44:08.842Z,68.70
2019-03-29T16:46:38.897Z,66.70
2019-03-29T16:49:07.325Z,67.60
2019-03-29T16:51:35.747Z,67.10
2019-03-29T16:54:06.813Z,68.30
2019-03-29T16:56:44.221Z,70.20
2019-03-29T16:59:15.333Z,71.20
2019-03-29T17:01:46.705Z,71.70
2019-03-29T17:04:17.030Z,74.50
2019-03-29T17:06:48.116Z,75.30
2019-03-29T17:09:17.773Z,77.60
2019-03-29T17:11:46.382Z,84.20
2019-03-29T17:14:17.528Z,84.80
2019-03-29T17:16:53.578Z,85.80
2019-03-29T17:19:23.341Z,87.70
2019-03-29T17:21:52.051Z,87.60
2019-03-29T17:24:20.649Z,88.80
2019-03-29T17:26:54.825Z,90.10
2019-03-29T17:29:24.153Z,90.30
2019-03-29T17:31:57.152Z,90.00
2019-03-29T17:34:25.569Z,90.20
2019-03-29T17:37:05.756Z,91.10
2019-03-29T17:39:39.197Z,91.50
2019-03-29T17:42:07.710Z,92.10
2019-03-29T17:44:38.121Z,92.80
2019-03-29T17:47:06.535Z,93.40
2019-03-29T17:49:39.764Z,93.40
2019-03-29T17:52:10.897Z,93.50
2019-03-29T17:54:39.332Z,93.90
2019-03-29T17:57:07.785Z,93.90
2019-03-29T17:59:41.831Z,94.00
2019-03-29T18:02:13.231Z,94.40
2019-03-29T18:04:41.705Z,94.50
2019-03-29T18:07:10.125Z,95.20
2019-03-29T18:09:38.573Z,95.20
2019-03-29T18:12:06.978Z,95.40
2019-03-29T18:14:35.692Z,95.20
2019-03-29T18:17:04.977Z,95.30
2019-03-29T18:19:42.401Z,95.70
2019-03-29T18:22:16.857Z,95.80
2019-03-29T18:24:48.194Z,96.00
2019-03-29T18:27:22.720Z,95.90
2019-03-29T18:29:51.407Z,96.10
2019-03-29T18:32:27.375Z,95.60
2019-03-29T18:35:00.044Z,95.60
2019-03-29T18:37:28.825Z,96.00
2019-03-29T18:39:57.381Z,96.00
2019-03-29T18:42:25.797Z,96.40
2019-03-29T18:44:54.217Z,97.10
2019-03-29T18:47:26.936Z,97.10
2019-03-29T18:49:56.994Z,97.00
2019-03-29T18:52:28.113Z,96.70
2019-03-29T18:54:56.541Z,96.70
2019-03-29T18:57:34.261Z,97.00
2019-03-29T19:00:02.848Z,97.00
2019-03-29T19:02:31.266Z,96.90
2019-03-29T19:05:02.385Z,97.00
2019-03-29T19:07:35.653Z,97.10
2019-03-29T19:10:05.872Z,97.00
2019-03-29T19:12:34.296Z,97.20
2019-03-29T19:15:08.635Z,97.70
2019-03-29T19:17:41.781Z,97.60
2019-03-29T19:20:11.013Z,97.70
2019-03-29T19:22:41.237Z,97.90
2019-03-29T19:25:09.789Z,98.10
2019-03-29T19:27:39.856Z,98.00
2019-03-29T19:30:12.421Z,98.10
2019-03-29T19:32:40.853Z,98.10
2019-03-29T19:35:11.150Z,98.10
2019-03-29T19:37:45.653Z,98.20
2019-03-29T19:40:17.519Z,98.20
2019-03-29T19:42:45.943Z,98.10
2019-03-29T19:45:14.797Z,98.10
2019-03-29T19:47:44.877Z,98.30
2019-03-29T19:50:16.272Z,98.50
2019-03-29T19:52:47.462Z,98.60
2019-03-29T19:55:20.430Z,98.60
2019-03-29T19:57:48.838Z,98.60
2019-03-29T20:00:19.714Z,98.60
2019-03-29T20:02:50.853Z,98.60
2019-03-29T20:05:30.207Z,98.60
2019-03-29T20:08:02.224Z,98.30
2019-03-29T20:10:35.368Z,98.90
2019-03-29T20:13:09.487Z,98.70
2019-03-29T20:15:43.914Z,98.60
2019-03-29T20:18:18.254Z,99.00
2019-03-29T20:20:46.664Z,99.00
2019-03-29T20:23:18.381Z,98.90
2019-03-29T20:25:46.805Z,99.10
2019-03-29T20:28:20.961Z,99.20
2019-03-29T20:30:51.016Z,99.50
2019-03-29T20:33:20.106Z,99.40
2019-03-29T20:35:51.475Z,99.30
2019-03-29T20:38:21.106Z,99.30
2019-03-29T20:40:49.517Z,99.30
2019-03-29T20:43:17.940Z,99.30
2019-03-29T20:45:49.299Z,98.90
2019-03-29T20:48:18.137Z,99.10
2019-03-29T20:50:46.549Z,99.60
2019-03-29T20:53:15.884Z,99.10
2019-03-29T20:55:47.261Z,99.30
2019-03-29T20:58:21.324Z,99.60
2019-03-29T21:00:49.733Z,99.50
2019-03-29T21:03:18.506Z,99.30
2019-03-29T21:05:48.822Z,99.70
2019-03-29T21:08:23.013Z,99.80
2019-03-29T21:10:56.137Z,99.90
2019-03-29T21:13:23.577Z,99.80
2019-03-29T21:15:57.074Z,99.90
2019-03-29T21:18:33.158Z,99.90
2019-03-29T21:20:58.713Z,99.90
2019-03-29T21:23:29.906Z,99.90
2019-03-29T21:26:01.228Z,99.90
2019-03-29T21:28:34.921Z,99.90
2019-03-29T21:31:02.433Z,99.90
2019-03-29T21:33:30.856Z,99.90
2019-03-29T21:36:00.901Z,99.90
2019-03-29T21:38:30.962Z,99.90
2019-03-29T21:41:09.413Z,99.90
2019-03-29T21:43:52.822Z,99.90
2019-03-29T21:46:24.250Z,99.90
2019-03-29T21:48:52.973Z,99.90
2019-03-29T21:51:24.067Z,99.90
2019-03-29T21:53:54.593Z,99.90
2019-03-29T21:56:25.280Z,99.90
2019-03-29T21:58:56.926Z,99.90
2019-03-29T22:01:28.318Z,99.80
2019-03-29T22:03:59.400Z,99.90
2019-03-29T22:06:36.388Z,99.90
2019-03-29T22:09:11.035Z,99.90
2019-03-29T22:11:39.444Z,99.80
2019-03-29T22:14:07.866Z,99.90
2019-03-29T22:16:36.281Z,99.90
2019-03-29T22:19:08.061Z,99.90
2019-03-29T22:21:36.460Z,99.90
2019-03-29T22:24:14.741Z,99.90
2019-03-29T22:26:50.500Z,99.90
2019-03-29T22:29:21.790Z,99.90
2019-03-29T22:31:50.210Z,99.90
2019-03-29T22:34:30.089Z,99.90
2019-03-29T22:37:01.404Z,99.90
2019-03-29T22:39:41.964Z,99.90
2019-03-29T22:42:13.032Z,99.90
2019-03-29T22:44:45.817Z,99.90
2019-03-29T22:47:18.762Z,99.90
2019-03-29T22:49:47.186Z,99.90
2019-03-29T22:52:17.230Z,99.90
2019-03-29T22:54:48.578Z,99.90
2019-03-29T22:57:22.529Z,99.90
2019-03-29T22:59:53.842Z,99.90
2019-03-29T23:02:25.403Z,99.90
2019-03-29T23:04:56.792Z,99.90
2019-03-29T23:07:33.519Z,99.90
2019-03-29T23:10:04.884Z,99.90
2019-03-29T23:12:34.599Z,99.90
2019-03-29T23:15:03.371Z,99.90
2019-03-29T23:17:40.261Z,99.90
2019-03-29T23:20:09.694Z,99.90
2019-03-29T23:22:41.269Z,99.90
2019-03-29T23:25:09.865Z,99.90
2019-03-29T23:27:44.332Z,99.90
2019-03-29T23:30:14.304Z,99.90
2019-03-29T23:32:42.717Z,99.90
2019-03-29T23:35:12.944Z,99.90
2019-03-29T23:37:42.993Z,99.90
2019-03-29T23:40:27.330Z,99.90
2019-03-29T23:42:57.378Z,99.90
2019-03-29T23:45:32.182Z,99.90
2019-03-29T23:48:00.955Z,99.90
2019-03-29T23:50:39.248Z,99.90
2019-03-29T23:53:17.784Z,99.90
2019-03-29T23:55:43.637Z,99.90
2019-03-29T23:58:19.693Z,99.90
